Terminal Aerodrome Forecast
Issued by NWS Grand Forks, ND

Home | Current Version | Previous Version | Text Only | Print | Product List | Glossary Off
Versions: 1 2 3 4 5 6 7 8 9 10 11 12 13 14 15 16 17 18

000
FTUS43 KFGF 282300
TAFFAR
TAF
KFAR 282332Z 2900/2924 32012KT 1SM BR OVC004
     FM290100 34015G23KT 3SM BR OVC005
     FM290600 34020G28KT P6SM OVC008
     FM291500 34017KT P6SM OVC015=

USA.gov is the U.S. government's official web portal to all federal, state and local government web resources and services.